sensor_id;sensor_type;location;lat;lon;timestamp;pressure;altitude;pressure_sealevel;temperature;humidity
60820;BME280;46641;48.904;9.126;2023-02-19T00:01:54;99141.16;;;14.47;59.86
60820;BME280;46641;48.904;9.126;2023-02-19T00:06:45;99137.72;;;14.46;59.77
60820;BME280;46641;48.904;9.126;2023-02-19T00:11:36;99129.13;;;14.44;60.00
60820;BME280;46641;48.904;9.126;2023-02-19T00:16:31;99121.22;;;14.44;59.99
60820;BME280;46641;48.904;9.126;2023-02-19T00:21:23;99126.50;;;14.44;59.96
60820;BME280;46641;48.904;9.126;2023-02-19T00:26:13;99128.44;;;14.42;60.04
60820;BME280;46641;48.904;9.126;2023-02-19T00:31:05;99148.88;;;14.40;59.77
60820;BME280;46641;48.904;9.126;2023-02-19T00:35:59;99144.22;;;14.34;60.21
60820;BME280;46641;48.904;9.126;2023-02-19T00:40:49;99135.63;;;14.32;60.34
60820;BME280;46641;48.904;9.126;2023-02-19T00:45:40;99140.06;;;14.32;60.39
60820;BME280;46641;48.904;9.126;2023-02-19T00:50:30;99127.59;;;14.34;60.33
60820;BME280;46641;48.904;9.126;2023-02-19T00:55:20;99116.38;;;14.32;60.13
60820;BME280;46641;48.904;9.126;2023-02-19T01:00:11;99117.38;;;14.31;60.20
60820;BME280;46641;48.904;9.126;2023-02-19T01:05:02;99110.44;;;14.30;60.12
60820;BME280;46641;48.904;9.126;2023-02-19T01:09:53;99100.75;;;14.30;59.81
60820;BME280;46641;48.904;9.126;2023-02-19T01:14:44;99099.91;;;14.30;60.00
60820;BME280;46641;48.904;9.126;2023-02-19T01:19:34;99101.88;;;14.27;59.89
60820;BME280;46641;48.904;9.126;2023-02-19T01:24:26;99098.44;;;14.27;60.22
60820;BME280;46641;48.904;9.126;2023-02-19T01:29:16;99092.47;;;14.25;59.87
60820;BME280;46641;48.904;9.126;2023-02-19T01:34:08;99097.75;;;14.25;60.27
60820;BME280;46641;48.904;9.126;2023-02-19T01:39:00;99100.22;;;14.26;60.10
60820;BME280;46641;48.904;9.126;2023-02-19T01:49:20;99100.69;;;14.22;60.32
60820;BME280;46641;48.904;9.126;2023-02-19T01:54:12;99091.97;;;14.21;60.29
60820;BME280;46641;48.904;9.126;2023-02-19T01:59:05;99093.63;;;14.22;60.20
60820;BME280;46641;48.904;9.126;2023-02-19T02:03:56;99096.41;;;14.21;60.28
60820;BME280;46641;48.904;9.126;2023-02-19T02:08:50;99095.06;;;14.17;60.67
60820;BME280;46641;48.904;9.126;2023-02-19T02:13:59;99078.63;;;14.15;60.61
60820;BME280;46641;48.904;9.126;2023-02-19T02:29:20;99046.66;;;14.10;60.76
60820;BME280;46641;48.904;9.126;2023-02-19T02:34:27;99040.44;;;14.11;60.57
60820;BME280;46641;48.904;9.126;2023-02-19T02:39:23;99048.31;;;14.11;60.52
60820;BME280;46641;48.904;9.126;2023-02-19T02:44:14;99045.84;;;14.09;60.16
60820;BME280;46641;48.904;9.126;2023-02-19T02:49:08;99051.09;;;14.09;60.36
60820;BME280;46641;48.904;9.126;2023-02-19T02:54:09;99044.19;;;14.08;60.84
60820;BME280;46641;48.904;9.126;2023-02-19T02:59:23;99049.78;;;14.05;60.44
60820;BME280;46641;48.904;9.126;2023-02-19T03:04:22;99039.25;;;14.05;60.75
60820;BME280;46641;48.904;9.126;2023-02-19T03:09:22;99038.25;;;14.06;60.67
60820;BME280;46641;48.904;9.126;2023-02-19T03:14:22;99040.06;;;14.06;60.51
60820;BME280;46641;48.904;9.126;2023-02-19T03:19:37;99030.53;;;14.05;60.77
60820;BME280;46641;48.904;9.126;2023-02-19T03:24:35;99025.56;;;14.01;60.72
60820;BME280;46641;48.904;9.126;2023-02-19T03:29:46;99021.63;;;13.97;60.73
60820;BME280;46641;48.904;9.126;2023-02-19T03:35:01;99027.50;;;13.91;61.15
60820;BME280;46641;48.904;9.126;2023-02-19T03:39:54;99027.50;;;13.91;60.85
60820;BME280;46641;48.904;9.126;2023-02-19T03:44:59;99023.38;;;13.89;61.04
60820;BME280;46641;48.904;9.126;2023-02-19T03:49:55;99028.13;;;13.85;61.38
60820;BME280;46641;48.904;9.126;2023-02-19T03:54:58;99025.13;;;13.80;61.20
60820;BME280;46641;48.904;9.126;2023-02-19T04:05:17;99046.78;;;13.74;61.29
60820;BME280;46641;48.904;9.126;2023-02-19T04:10:09;99052.34;;;13.71;61.41
60820;BME280;46641;48.904;9.126;2023-02-19T04:15:06;99050.69;;;13.70;61.06
60820;BME280;46641;48.904;9.126;2023-02-19T04:20:02;99048.97;;;13.61;61.20
60820;BME280;46641;48.904;9.126;2023-02-19T04:24:54;99061.41;;;13.50;61.51
60820;BME280;46641;48.904;9.126;2023-02-19T04:29:45;99072.22;;;13.47;61.77
60820;BME280;46641;48.904;9.126;2023-02-19T04:34:36;99072.69;;;13.43;61.91
60820;BME280;46641;48.904;9.126;2023-02-19T04:39:26;99080.28;;;13.46;62.13
60820;BME280;46641;48.904;9.126;2023-02-19T04:44:17;99090.50;;;13.49;61.97
60820;BME280;46641;48.904;9.126;2023-02-19T04:49:07;99094.91;;;13.48;61.77
60820;BME280;46641;48.904;9.126;2023-02-19T04:53:57;99098.53;;;13.47;61.75
60820;BME280;46641;48.904;9.126;2023-02-19T04:58:47;99108.59;;;13.52;61.72
60820;BME280;46641;48.904;9.126;2023-02-19T05:03:38;99109.03;;;13.47;61.68
60820;BME280;46641;48.904;9.126;2023-02-19T05:08:28;99113.88;;;13.52;61.80
60820;BME280;46641;48.904;9.126;2023-02-19T05:13:18;99109.72;;;13.49;61.65
60820;BME280;46641;48.904;9.126;2023-02-19T05:18:08;99110.03;;;13.46;61.46
60820;BME280;46641;48.904;9.126;2023-02-19T05:22:59;99117.41;;;13.43;61.35
60820;BME280;46641;48.904;9.126;2023-02-19T05:27:49;99109.13;;;13.38;61.57
60820;BME280;46641;48.904;9.126;2023-02-19T05:32:59;99104.63;;;13.30;62.19
60820;BME280;46641;48.904;9.126;2023-02-19T05:37:49;99117.78;;;13.30;61.92
60820;BME280;46641;48.904;9.126;2023-02-19T05:42:40;99119.13;;;13.34;61.72
60820;BME280;46641;48.904;9.126;2023-02-19T05:47:30;99122.44;;;13.36;61.30
60820;BME280;46641;48.904;9.126;2023-02-19T05:52:20;99126.31;;;13.32;61.51
60820;BME280;46641;48.904;9.126;2023-02-19T05:57:10;99100.88;;;13.32;61.56
60820;BME280;46641;48.904;9.126;2023-02-19T06:02:01;99106.25;;;13.31;61.77
60820;BME280;46641;48.904;9.126;2023-02-19T06:06:51;99105.28;;;13.32;61.36
60820;BME280;46641;48.904;9.126;2023-02-19T06:11:41;99117.38;;;13.25;61.72
60820;BME280;46641;48.904;9.126;2023-02-19T06:16:32;99124.16;;;13.27;61.58
60820;BME280;46641;48.904;9.126;2023-02-19T06:21:23;99128.59;;;13.27;61.64
60820;BME280;46641;48.904;9.126;2023-02-19T06:26:23;99136.03;;;13.22;61.31
60820;BME280;46641;48.904;9.126;2023-02-19T06:31:14;99134.22;;;13.22;61.70
60820;BME280;46641;48.904;9.126;2023-02-19T06:36:07;99133.66;;;13.28;61.35
60820;BME280;46641;48.904;9.126;2023-02-19T06:41:02;99148.50;;;13.29;60.99
60820;BME280;46641;48.904;9.126;2023-02-19T06:45:53;99156.69;;;13.26;61.67
60820;BME280;46641;48.904;9.126;2023-02-19T06:50:43;99169.34;;;13.31;61.66
60820;BME280;46641;48.904;9.126;2023-02-19T06:55:34;99181.69;;;13.30;61.19
60820;BME280;46641;48.904;9.126;2023-02-19T07:00:24;99191.50;;;13.28;60.53
60820;BME280;46641;48.904;9.126;2023-02-19T07:05:14;99200.53;;;13.26;61.39
60820;BME280;46641;48.904;9.126;2023-02-19T07:10:05;99213.81;;;13.24;61.08
60820;BME280;46641;48.904;9.126;2023-02-19T07:14:56;99208.44;;;13.26;60.97
60820;BME280;46641;48.904;9.126;2023-02-19T07:19:46;99214.34;;;13.28;61.12
60820;BME280;46641;48.904;9.126;2023-02-19T07:24:36;99226.38;;;13.30;60.69
60820;BME280;46641;48.904;9.126;2023-02-19T07:29:26;99231.09;;;13.27;60.67
60820;BME280;46641;48.904;9.126;2023-02-19T07:34:17;99235.25;;;13.29;60.93
60820;BME280;46641;48.904;9.126;2023-02-19T07:39:11;99247.41;;;13.30;60.38
60820;BME280;46641;48.904;9.126;2023-02-19T07:44:02;99257.38;;;13.27;60.76
60820;BME280;46641;48.904;9.126;2023-02-19T07:48:52;99252.38;;;13.24;60.84
60820;BME280;46641;48.904;9.126;2023-02-19T07:53:46;99273.81;;;13.29;60.78
60820;BME280;46641;48.904;9.126;2023-02-19T07:58:37;99269.56;;;13.28;60.72
60820;BME280;46641;48.904;9.126;2023-02-19T08:03:28;99270.25;;;13.30;60.87
60820;BME280;46641;48.904;9.126;2023-02-19T08:08:18;99262.19;;;13.31;60.38
60820;BME280;46641;48.904;9.126;2023-02-19T08:13:10;99254.47;;;13.30;60.67
60820;BME280;46641;48.904;9.126;2023-02-19T08:18:19;99267.44;;;13.31;60.37
60820;BME280;46641;48.904;9.126;2023-02-19T08:23:11;99264.44;;;13.26;60.67
60820;BME280;46641;48.904;9.126;2023-02-19T08:28:01;99277.03;;;13.23;60.68
60820;BME280;46641;48.904;9.126;2023-02-19T08:32:52;99291.28;;;13.20;60.44
60820;BME280;46641;48.904;9.126;2023-02-19T08:37:43;99286.44;;;13.16;61.07
60820;BME280;46641;48.904;9.126;2023-02-19T08:42:33;99286.59;;;13.14;61.05
60820;BME280;46641;48.904;9.126;2023-02-19T08:47:23;99278.28;;;13.19;60.94
60820;BME280;46641;48.904;9.126;2023-02-19T08:52:13;99281.72;;;13.19;61.07
60820;BME280;46641;48.904;9.126;2023-02-19T08:57:04;99278.28;;;13.19;61.34
60820;BME280;46641;48.904;9.126;2023-02-19T09:01:54;99292.09;;;13.21;61.23
60820;BME280;46641;48.904;9.126;2023-02-19T09:06:44;99297.66;;;13.27;61.19
60820;BME280;46641;48.904;9.126;2023-02-19T09:11:37;99299.81;;;13.32;61.06
60820;BME280;46641;48.904;9.126;2023-02-19T09:16:28;99323.91;;;13.37;60.76
60820;BME280;46641;48.904;9.126;2023-02-19T09:21:18;99338.97;;;13.35;60.52
60820;BME280;46641;48.904;9.126;2023-02-19T09:26:08;99338.03;;;13.36;60.63
60820;BME280;46641;48.904;9.126;2023-02-19T09:31:08;99351.16;;;13.36;60.30
60820;BME280;46641;48.904;9.126;2023-02-19T09:36:00;99348.81;;;13.33;60.29
60820;BME280;46641;48.904;9.126;2023-02-19T09:40:51;99335.41;;;13.36;60.86
60820;BME280;46641;48.904;9.126;2023-02-19T09:45:41;99340.06;;;13.42;61.17
60820;BME280;46641;48.904;9.126;2023-02-19T09:50:36;99351.94;;;13.46;60.06
60820;BME280;46641;48.904;9.126;2023-02-19T09:55:32;99353.47;;;13.49;60.33
60820;BME280;46641;48.904;9.126;2023-02-19T10:00:25;99346.25;;;13.51;60.18
60820;BME280;46641;48.904;9.126;2023-02-19T10:05:16;99344.16;;;13.54;60.17
60820;BME280;46641;48.904;9.126;2023-02-19T10:15:09;99352.16;;;13.63;59.60
60820;BME280;46641;48.904;9.126;2023-02-19T10:20:00;99349.22;;;13.66;60.06
60820;BME280;46641;48.904;9.126;2023-02-19T10:24:54;99363.75;;;13.70;59.88
60820;BME280;46641;48.904;9.126;2023-02-19T10:29:46;99371.63;;;13.70;59.58
60820;BME280;46641;48.904;9.126;2023-02-19T10:34:38;99379.94;;;13.75;59.54
60820;BME280;46641;48.904;9.126;2023-02-19T10:39:35;99384.75;;;13.79;59.35
60820;BME280;46641;48.904;9.126;2023-02-19T10:44:33;99377.97;;;13.77;59.29
60820;BME280;46641;48.904;9.126;2023-02-19T10:49:28;99391.00;;;13.78;58.30
60820;BME280;46641;48.904;9.126;2023-02-19T10:54:28;99388.47;;;13.77;58.27
60820;BME280;46641;48.904;9.126;2023-02-19T10:59:23;99396.78;;;13.82;58.71
60820;BME280;46641;48.904;9.126;2023-02-19T11:04:16;99416.84;;;13.83;59.21
60820;BME280;46641;48.904;9.126;2023-02-19T11:09:22;99413.69;;;13.79;58.10
60820;BME280;46641;48.904;9.126;2023-02-19T11:14:17;99405.34;;;13.84;58.82
60820;BME280;46641;48.904;9.126;2023-02-19T11:19:20;99401.16;;;13.91;58.51
60820;BME280;46641;48.904;9.126;2023-02-19T11:24:22;99399.44;;;14.00;58.78
60820;BME280;46641;48.904;9.126;2023-02-19T11:29:20;99391.94;;;14.05;58.71
60820;BME280;46641;48.904;9.126;2023-02-19T11:59:40;99431.59;;;14.21;58.23
60820;BME280;46641;48.904;9.126;2023-02-19T12:04:59;99430.31;;;14.25;57.52
60820;BME280;46641;48.904;9.126;2023-02-19T12:10:16;99424.25;;;14.25;57.75
60820;BME280;46641;48.904;9.126;2023-02-19T12:20:33;99402.59;;;14.31;58.30
60820;BME280;46641;48.904;9.126;2023-02-19T12:46:14;99384.91;;;14.41;57.94
60820;BME280;46641;48.904;9.126;2023-02-19T12:51:11;99387.53;;;14.41;57.71
60820;BME280;46641;48.904;9.126;2023-02-19T12:56:08;99394.16;;;14.45;57.50
60820;BME280;46641;48.904;9.126;2023-02-19T13:01:01;99393.50;;;14.43;57.26
60820;BME280;46641;48.904;9.126;2023-02-19T13:06:03;99406.97;;;14.40;55.91
60820;BME280;46641;48.904;9.126;2023-02-19T13:10:59;99402.00;;;14.37;56.70
60820;BME280;46641;48.904;9.126;2023-02-19T13:15:53;99391.06;;;14.32;56.63
60820;BME280;46641;48.904;9.126;2023-02-19T13:20:46;99395.66;;;14.30;57.54
60820;BME280;46641;48.904;9.126;2023-02-19T13:25:57;99398.13;;;14.32;56.05
60820;BME280;46641;48.904;9.126;2023-02-19T13:36:15;99405.44;;;14.38;57.83
60820;BME280;46641;48.904;9.126;2023-02-19T13:41:59;99402.00;;;14.37;58.53
60820;BME280;46641;48.904;9.126;2023-02-19T13:46:45;99389.03;;;14.44;58.97
60820;BME280;46641;48.904;9.126;2023-02-19T13:51:38;99385.94;;;14.48;58.95
60820;BME280;46641;48.904;9.126;2023-02-19T14:21:59;99371.44;;;14.44;58.80
60820;BME280;46641;48.904;9.126;2023-02-19T14:26:49;99382.97;;;14.43;58.44
60820;BME280;46641;48.904;9.126;2023-02-19T14:31:43;99385.28;;;14.46;58.74
60820;BME280;46641;48.904;9.126;2023-02-19T14:36:39;99388.59;;;14.48;58.11
60820;BME280;46641;48.904;9.126;2023-02-19T14:41:36;99394.66;;;14.49;58.34
60820;BME280;46641;48.904;9.126;2023-02-19T14:46:36;99420.91;;;14.51;57.95
60820;BME280;46641;48.904;9.126;2023-02-19T14:51:38;99428.38;;;14.45;56.58
60820;BME280;46641;48.904;9.126;2023-02-19T14:56:32;99414.56;;;14.43;56.78
60820;BME280;46641;48.904;9.126;2023-02-19T15:01:27;99411.94;;;14.43;57.52
60820;BME280;46641;48.904;9.126;2023-02-19T15:06:17;99430.38;;;14.43;57.51
60820;BME280;46641;48.904;9.126;2023-02-19T15:11:15;99449.16;;;14.48;57.16
60820;BME280;46641;48.904;9.126;2023-02-19T15:16:06;99456.81;;;14.52;57.58
60820;BME280;46641;48.904;9.126;2023-02-19T15:21:01;99456.81;;;14.52;57.36
60820;BME280;46641;48.904;9.126;2023-02-19T15:25:52;99463.06;;;14.51;57.38
60820;BME280;46641;48.904;9.126;2023-02-19T15:30:43;99455.97;;;14.51;57.58
60820;BME280;46641;48.904;9.126;2023-02-19T15:35:33;99466.66;;;14.49;57.27
60820;BME280;46641;48.904;9.126;2023-02-19T15:40:28;99456.41;;;14.46;56.52
60820;BME280;46641;48.904;9.126;2023-02-19T15:45:22;99458.50;;;14.43;57.87
60820;BME280;46641;48.904;9.126;2023-02-19T15:50:29;99458.66;;;14.41;56.54
60820;BME280;46641;48.904;9.126;2023-02-19T15:55:35;99451.34;;;14.35;56.78
60820;BME280;46641;48.904;9.126;2023-02-19T16:00:37;99456.31;;;14.38;57.29
60820;BME280;46641;48.904;9.126;2023-02-19T16:05:29;99463.78;;;14.43;58.44
60820;BME280;46641;48.904;9.126;2023-02-19T16:10:22;99466.84;;;14.38;57.36
60820;BME280;46641;48.904;9.126;2023-02-19T16:15:13;99460.34;;;14.33;56.30
60820;BME280;46641;48.904;9.126;2023-02-19T16:20:04;99466.47;;;14.33;57.74
60820;BME280;46641;48.904;9.126;2023-02-19T16:25:00;99472.69;;;14.32;57.44
60820;BME280;46641;48.904;9.126;2023-02-19T16:29:52;99465.78;;;14.31;57.21
60820;BME280;46641;48.904;9.126;2023-02-19T16:34:48;99473.81;;;14.30;57.15
60820;BME280;46641;48.904;9.126;2023-02-19T16:39:39;99465.53;;;14.24;57.31
60820;BME280;46641;48.904;9.126;2023-02-19T16:44:33;99466.25;;;14.17;57.77
60820;BME280;46641;48.904;9.126;2023-02-19T16:49:24;99468.75;;;14.18;58.05
60820;BME280;46641;48.904;9.126;2023-02-19T16:54:15;99472.09;;;14.20;57.85
60820;BME280;46641;48.904;9.126;2023-02-19T16:59:05;99469.44;;;14.20;57.52
60820;BME280;46641;48.904;9.126;2023-02-19T17:04:06;99472.22;;;14.19;57.75
60820;BME280;46641;48.904;9.126;2023-02-19T17:08:57;99472.50;;;14.16;58.25
60820;BME280;46641;48.904;9.126;2023-02-19T17:13:48;99482.06;;;14.17;58.62
60820;BME280;46641;48.904;9.126;2023-02-19T17:18:38;99494.25;;;14.18;58.88
60820;BME280;46641;48.904;9.126;2023-02-19T17:23:28;99496.91;;;14.18;58.54
60820;BME280;46641;48.904;9.126;2023-02-19T17:28:19;99507.28;;;14.19;58.33
60820;BME280;46641;48.904;9.126;2023-02-19T17:33:09;99516.28;;;14.17;58.23
60820;BME280;46641;48.904;9.126;2023-02-19T17:37:59;99527.97;;;14.14;58.26
60820;BME280;46641;48.904;9.126;2023-02-19T17:42:50;99528.09;;;14.13;58.95
60820;BME280;46641;48.904;9.126;2023-02-19T17:47:40;99539.03;;;14.18;58.82
60820;BME280;46641;48.904;9.126;2023-02-19T17:52:30;99551.38;;;14.17;58.36
60820;BME280;46641;48.904;9.126;2023-02-19T17:57:21;99551.50;;;14.16;58.38
60820;BME280;46641;48.904;9.126;2023-02-19T18:02:11;99570.09;;;14.14;58.83
60820;BME280;46641;48.904;9.126;2023-02-19T18:07:01;99579.47;;;14.17;58.82
60820;BME280;46641;48.904;9.126;2023-02-19T18:11:52;99581.44;;;14.15;58.85
60820;BME280;46641;48.904;9.126;2023-02-19T18:16:48;99585.72;;;14.16;58.46
60820;BME280;46641;48.904;9.126;2023-02-19T18:21:38;99598.06;;;14.15;58.61
60820;BME280;46641;48.904;9.126;2023-02-19T18:26:29;99594.59;;;14.15;58.92
60820;BME280;46641;48.904;9.126;2023-02-19T18:31:19;99595.25;;;14.17;59.11
60820;BME280;46641;48.904;9.126;2023-02-19T18:36:10;99601.78;;;14.13;58.88
60820;BME280;46641;48.904;9.126;2023-02-19T18:41:00;99604.72;;;14.10;58.80
60820;BME280;46641;48.904;9.126;2023-02-19T18:45:51;99606.53;;;14.09;58.66
60820;BME280;46641;48.904;9.126;2023-02-19T18:50:41;99608.34;;;14.09;58.89
60820;BME280;46641;48.904;9.126;2023-02-19T18:55:32;99609.97;;;14.10;59.05
60820;BME280;46641;48.904;9.126;2023-02-19T19:00:23;99620.50;;;14.10;58.87
60820;BME280;46641;48.904;9.126;2023-02-19T19:05:17;99624.13;;;14.09;58.98
60820;BME280;46641;48.904;9.126;2023-02-19T19:10:10;99627.75;;;14.08;58.82
60820;BME280;46641;48.904;9.126;2023-02-19T19:15:00;99636.59;;;14.07;58.81
60820;BME280;46641;48.904;9.126;2023-02-19T19:19:51;99646.84;;;14.00;58.21
60820;BME280;46641;48.904;9.126;2023-02-19T19:24:41;99652.56;;;13.95;57.54
60820;BME280;46641;48.904;9.126;2023-02-19T19:29:31;99651.84;;;13.93;58.42
60820;BME280;46641;48.904;9.126;2023-02-19T19:34:22;99650.19;;;13.92;58.60
60820;BME280;46641;48.904;9.126;2023-02-19T19:39:13;99654.50;;;13.93;57.98
60820;BME280;46641;48.904;9.126;2023-02-19T19:44:05;99655.19;;;13.86;58.27
60820;BME280;46641;48.904;9.126;2023-02-19T19:48:56;99660.88;;;13.81;58.38
60820;BME280;46641;48.904;9.126;2023-02-19T19:53:47;99663.50;;;13.81;57.96
60820;BME280;46641;48.904;9.126;2023-02-19T19:58:38;99672.38;;;13.80;58.23
60820;BME280;46641;48.904;9.126;2023-02-19T20:03:29;99660.47;;;13.76;58.01
60820;BME280;46641;48.904;9.126;2023-02-19T20:08:20;99668.38;;;13.76;58.30
60820;BME280;46641;48.904;9.126;2023-02-19T20:13:15;99659.50;;;13.77;58.34
60820;BME280;46641;48.904;9.126;2023-02-19T20:18:05;99655.06;;;13.77;58.41
60820;BME280;46641;48.904;9.126;2023-02-19T20:22:56;99651.59;;;13.77;58.50
60820;BME280;46641;48.904;9.126;2023-02-19T20:27:47;99660.47;;;13.76;58.80
60820;BME280;46641;48.904;9.126;2023-02-19T20:32:38;99667.09;;;13.80;58.54
60820;BME280;46641;48.904;9.126;2023-02-19T20:37:28;99669.06;;;13.78;58.99
60820;BME280;46641;48.904;9.126;2023-02-19T20:42:18;99666.13;;;13.81;59.13
60820;BME280;46641;48.904;9.126;2023-02-19T20:47:09;99660.59;;;13.84;59.17
60820;BME280;46641;48.904;9.126;2023-02-19T20:52:04;99659.63;;;13.85;58.83
60820;BME280;46641;48.904;9.126;2023-02-19T20:56:56;99665.03;;;13.84;59.31
60820;BME280;46641;48.904;9.126;2023-02-19T21:01:47;99658.22;;;13.81;58.96
60820;BME280;46641;48.904;9.126;2023-02-19T21:06:37;99682.91;;;13.80;59.02
60820;BME280;46641;48.904;9.126;2023-02-19T21:11:28;99673.19;;;13.80;58.99
60820;BME280;46641;48.904;9.126;2023-02-19T21:16:18;99667.09;;;13.80;59.44
60820;BME280;46641;48.904;9.126;2023-02-19T21:21:08;99665.31;;;13.80;59.84
60820;BME280;46641;48.904;9.126;2023-02-19T21:26:02;99666.28;;;13.79;59.34
60820;BME280;46641;48.904;9.126;2023-02-19T21:30:52;99672.38;;;13.80;59.57
60820;BME280;46641;48.904;9.126;2023-02-19T21:35:43;99670.84;;;13.77;59.28
60820;BME280;46641;48.904;9.126;2023-02-19T21:40:34;99658.66;;;13.76;59.19
60820;BME280;46641;48.904;9.126;2023-02-19T21:45:24;99653.69;;;13.73;59.73
60820;BME280;46641;48.904;9.126;2023-02-19T21:50:14;99658.94;;;13.73;59.60
60820;BME280;46641;48.904;9.126;2023-02-19T21:55:05;99644.13;;;13.72;59.63
60820;BME280;46641;48.904;9.126;2023-02-19T21:59:55;99649.41;;;13.72;60.02
60820;BME280;46641;48.904;9.126;2023-02-19T22:04:50;99656.47;;;13.72;59.65
60820;BME280;46641;48.904;9.126;2023-02-19T22:09:42;99661.56;;;13.73;59.65
60820;BME280;46641;48.904;9.126;2023-02-19T22:14:32;99656.47;;;13.72;59.92
60820;BME280;46641;48.904;9.126;2023-02-19T22:19:23;99666.13;;;13.71;59.68
60820;BME280;46641;48.904;9.126;2023-02-19T22:24:15;99676.81;;;13.70;59.87
60820;BME280;46641;48.904;9.126;2023-02-19T22:29:06;99688.16;;;13.70;59.75
60820;BME280;46641;48.904;9.126;2023-02-19T22:33:57;99689.25;;;13.68;59.75
60820;BME280;46641;48.904;9.126;2023-02-19T22:38:48;99693.97;;;13.64;59.96
60820;BME280;46641;48.904;9.126;2023-02-19T22:43:39;99692.88;;;13.67;59.98
60820;BME280;46641;48.904;9.126;2023-02-19T22:48:30;99690.22;;;13.67;59.90
60820;BME280;46641;48.904;9.126;2023-02-19T22:53:20;99689.25;;;13.68;59.93
60820;BME280;46641;48.904;9.126;2023-02-19T22:58:10;99687.59;;;13.67;60.04
60820;BME280;46641;48.904;9.126;2023-02-19T23:03:01;99688.59;;;13.66;60.11
60820;BME280;46641;48.904;9.126;2023-02-19T23:07:51;99697.41;;;13.65;60.19
60820;BME280;46641;48.904;9.126;2023-02-19T23:12:41;99706.16;;;13.65;59.82
60820;BME280;46641;48.904;9.126;2023-02-19T23:17:32;99712.25;;;13.66;60.15
60820;BME280;46641;48.904;9.126;2023-02-19T23:22:22;99703.66;;;13.64;59.86
60820;BME280;46641;48.904;9.126;2023-02-19T23:27:13;99695.09;;;13.62;60.05
60820;BME280;46641;48.904;9.126;2023-02-19T23:32:03;99702.13;;;13.61;60.07
60820;BME280;46641;48.904;9.126;2023-02-19T23:36:54;99710.88;;;13.62;59.85
60820;BME280;46641;48.904;9.126;2023-02-19T23:41:49;99709.19;;;13.61;59.59
60820;BME280;46641;48.904;9.126;2023-02-19T23:46:40;99711.16;;;13.59;60.15
60820;BME280;46641;48.904;9.126;2023-02-19T23:51:30;99711.28;;;13.57;59.54
60820;BME280;46641;48.904;9.126;2023-02-19T23:56:22;99710.88;;;13.52;59.79
